createdAt,value
2023-04-08T00:00:25.647Z,100167.00
2023-04-08T00:03:29.921Z,100170.28
2023-04-08T00:06:34.435Z,100133.94
2023-04-08T00:09:39.517Z,100113.94
2023-04-08T00:12:44.204Z,100187.41
2023-04-08T00:15:48.559Z,100189.59
2023-04-08T00:18:53.054Z,100188.91
2023-04-08T00:21:57.736Z,100160.91
2023-04-08T00:25:02.783Z,100162.19
2023-04-08T00:28:07.228Z,100185.13
2023-04-08T00:31:12.475Z,100184.31
2023-04-08T00:34:17.302Z,100169.94
2023-04-08T00:37:22.015Z,100193.06
2023-04-08T00:40:25.985Z,100172.03
2023-04-08T00:43:30.667Z,100148.94
2023-04-08T00:46:39.858Z,100181.56
2023-04-08T00:49:45.378Z,100171.69
2023-04-08T00:53:00.781Z,99920.69
2023-04-08T00:56:05.691Z,100193.41
2023-04-08T00:59:10.375Z,100184.28
2023-04-08T01:02:33.344Z,100157.84
2023-04-08T01:05:51.317Z,100189.13
2023-04-08T01:08:56.072Z,100184.25
2023-04-08T01:12:05.311Z,100189.91
2023-04-08T01:15:12.481Z,100158.94
2023-04-08T01:18:18.202Z,100178.09
2023-04-08T01:21:23.091Z,100178.06
2023-04-08T01:24:35.174Z,100174.03
2023-04-08T01:27:39.958Z,100172.13
2023-04-08T01:30:46.466Z,100153.13
2023-04-08T01:33:52.665Z,100166.56
2023-04-08T01:37:00.734Z,100156.97
2023-04-08T01:40:06.196Z,100157.22
2023-04-08T01:43:12.838Z,100146.63
2023-04-08T01:46:17.165Z,100127.78
2023-04-08T01:49:23.668Z,100147.56
2023-04-08T01:52:29.908Z,100148.91
2023-04-08T01:55:34.796Z,100138.91
2023-04-08T01:58:43.328Z,100119.00
2023-04-08T02:01:48.666Z,100126.72
2023-04-08T02:04:52.798Z,100133.66
2023-04-08T02:07:57.039Z,100131.00
2023-04-08T02:11:01.696Z,100128.25
2023-04-08T02:14:06.729Z,100082.06
2023-04-08T02:17:15.212Z,100129.19
2023-04-08T02:20:20.297Z,100128.78
2023-04-08T02:23:26.592Z,100109.19
2023-04-08T02:26:39.184Z,100124.63
2023-04-08T02:29:44.236Z,100094.50
2023-04-08T02:32:49.105Z,100115.03
2023-04-08T02:35:56.177Z,100112.38
2023-04-08T02:39:01.060Z,100085.13
2023-04-08T02:42:06.958Z,100100.22
2023-04-08T02:45:11.431Z,100096.28
2023-04-08T02:48:15.878Z,100106.03
2023-04-08T02:51:19.921Z,100096.94
2023-04-08T02:54:23.833Z,100091.81
2023-04-08T02:57:28.317Z,100097.03
2023-04-08T03:00:33.083Z,100086.66
2023-04-08T03:03:37.401Z,100087.75
2023-04-08T03:06:41.446Z,100091.38
2023-04-08T03:09:45.731Z,100064.19
2023-04-08T03:12:49.871Z,100087.94
2023-04-08T03:15:54.443Z,100080.50
2023-04-08T03:18:58.951Z,100077.94
2023-04-08T03:22:03.443Z,100074.31
2023-04-08T03:25:07.978Z,100062.94
2023-04-08T03:28:14.300Z,100063.06
2023-04-08T03:31:18.354Z,100068.72
2023-04-08T03:34:22.992Z,100055.50
2023-04-08T03:37:27.803Z,100064.06
2023-04-08T03:40:34.597Z,100058.28
2023-04-08T03:43:38.950Z,100045.47
2023-04-08T03:46:43.131Z,100052.44
2023-04-08T03:49:47.748Z,100044.59
2023-04-08T03:52:52.305Z,100051.50
2023-04-08T03:55:58.535Z,100044.16
2023-04-08T03:59:02.727Z,100011.91
2023-04-08T04:02:07.269Z,100030.22
2023-04-08T04:05:11.738Z,100043.03
2023-04-08T04:08:16.682Z,100046.41
2023-04-08T04:11:22.391Z,100037.84
2023-04-08T04:14:26.697Z,100036.88
2023-04-08T04:17:31.441Z,100030.91
2023-04-08T04:20:36.455Z,100027.16
2023-04-08T04:23:41.022Z,100013.94
2023-04-08T04:26:45.043Z,100045.72
2023-04-08T04:29:49.546Z,100030.59
2023-04-08T04:32:53.447Z,99909.38
2023-04-08T04:35:58.052Z,100035.72
2023-04-08T04:39:02.854Z,100009.75
2023-04-08T04:42:07.521Z,100026.47
2023-04-08T04:45:12.412Z,100018.75
2023-04-08T04:48:16.434Z,100039.13
2023-04-08T04:51:22.029Z,100047.94
2023-04-08T04:54:26.856Z,100028.50
2023-04-08T04:57:31.476Z,100018.19
2023-04-08T05:00:37.220Z,100019.28
2023-04-08T05:03:42.151Z,100024.16
2023-04-08T05:06:46.964Z,100038.84
2023-04-08T05:09:51.533Z,99986.25
2023-04-08T05:12:55.588Z,100044.50
2023-04-08T05:15:59.877Z,100028.25
2023-04-08T05:19:03.887Z,100030.31
2023-04-08T05:22:08.318Z,100013.09
2023-04-08T05:25:12.937Z,99994.75
2023-04-08T05:28:17.224Z,100009.59
2023-04-08T05:31:22.394Z,100003.41
2023-04-08T05:34:26.628Z,99992.28
2023-04-08T05:37:31.479Z,100014.06
2023-04-08T05:40:36.211Z,100011.94
2023-04-08T05:43:40.923Z,100007.44
2023-04-08T05:46:48.412Z,99952.06
2023-04-08T05:49:52.446Z,99960.81
2023-04-08T05:52:56.747Z,100011.69
2023-04-08T05:56:01.181Z,100003.31
2023-04-08T05:59:05.890Z,99994.09
2023-04-08T06:02:12.449Z,100013.47
2023-04-08T06:05:17.287Z,99992.16
2023-04-08T06:08:22.012Z,100013.88
2023-04-08T06:11:26.736Z,100001.63
2023-04-08T06:14:31.340Z,100010.22
2023-04-08T06:17:38.431Z,100011.47
2023-04-08T06:20:42.537Z,100004.22
2023-04-08T06:23:46.747Z,100001.94
2023-04-08T06:26:51.175Z,100007.91
2023-04-08T06:29:56.189Z,100002.88
2023-04-08T06:33:00.740Z,100006.06
2023-04-08T06:36:06.772Z,99995.03
2023-04-08T06:39:11.500Z,100005.00
2023-04-08T06:42:15.584Z,99965.88
2023-04-08T06:45:38.412Z,100006.84
2023-04-08T06:48:42.980Z,100007.94
2023-04-08T06:51:47.456Z,99998.50
2023-04-08T06:54:51.725Z,99996.50
2023-04-08T06:57:55.872Z,100011.66
2023-04-08T07:01:02.317Z,100013.13
2023-04-08T07:04:06.714Z,100016.50
2023-04-08T07:07:10.525Z,100020.75
2023-04-08T07:10:15.124Z,100030.25
2023-04-08T07:13:19.751Z,100018.94
2023-04-08T07:16:24.399Z,100022.59
2023-04-08T07:19:29.220Z,100027.44
2023-04-08T07:22:33.770Z,100000.22
2023-04-08T07:25:37.886Z,100026.19
2023-04-08T07:28:42.059Z,100020.09
2023-04-08T07:31:46.367Z,100030.91
2023-04-08T07:34:51.289Z,100026.19
2023-04-08T07:37:55.948Z,100045.22
2023-04-08T07:40:59.924Z,100044.22
2023-04-08T07:44:04.238Z,100031.47
2023-04-08T07:47:08.276Z,100056.69
2023-04-08T07:50:12.881Z,100058.28
2023-04-08T07:53:17.980Z,100060.03
2023-04-08T07:56:23.302Z,100062.03
2023-04-08T07:59:27.411Z,100052.63
2023-04-08T08:02:32.120Z,100050.97
2023-04-08T08:05:40.127Z,100076.19
2023-04-08T08:08:45.070Z,100078.94
2023-04-08T08:11:49.491Z,100076.34
2023-04-08T08:14:55.701Z,100067.47
2023-04-08T08:18:00.242Z,100068.38
2023-04-08T08:21:05.136Z,100073.84
2023-04-08T08:24:09.698Z,100077.00
2023-04-08T08:27:13.994Z,100054.38
2023-04-08T08:30:18.199Z,100076.53
2023-04-08T08:33:22.534Z,100088.94
2023-04-08T08:36:30.755Z,100100.69
2023-04-08T08:39:36.275Z,100101.00
2023-04-08T08:42:41.244Z,100107.88
2023-04-08T08:45:45.530Z,100101.03
2023-04-08T08:48:50.872Z,100101.31
2023-04-08T08:51:56.809Z,100109.00
2023-04-08T08:55:03.329Z,100113.69
2023-04-08T08:58:14.626Z,100103.53
2023-04-08T09:01:35.719Z,100105.59
2023-04-08T09:04:40.282Z,100123.31
2023-04-08T09:07:45.545Z,100134.00
2023-04-08T09:10:49.614Z,100148.06
2023-04-08T09:13:54.028Z,100128.69
2023-04-08T09:16:58.634Z,100160.09
2023-04-08T09:20:16.082Z,100161.25
2023-04-08T09:23:20.679Z,100172.78
2023-04-08T09:26:26.113Z,100177.97
2023-04-08T09:29:33.842Z,100163.31
2023-04-08T09:33:02.102Z,100171.34
2023-04-08T09:36:11.614Z,100174.88
2023-04-08T09:39:17.084Z,100160.22
2023-04-08T09:42:23.349Z,100185.63
2023-04-08T09:45:28.883Z,100182.91
2023-04-08T09:48:41.648Z,100142.94
2023-04-08T09:52:14.786Z,100205.94
2023-04-08T09:55:23.117Z,100208.69
2023-04-08T09:58:32.747Z,100217.44
2023-04-08T10:01:46.520Z,100212.31
2023-04-08T10:04:54.924Z,100186.25
2023-04-08T10:08:01.486Z,100230.81
2023-04-08T10:11:05.494Z,100238.72
2023-04-08T10:14:12.281Z,100225.59
2023-04-08T10:17:29.446Z,100243.97
2023-04-08T10:20:38.407Z,100256.25
2023-04-08T10:24:00.853Z,100265.00
2023-04-08T10:27:07.328Z,100244.94
2023-04-08T10:30:40.767Z,100274.69
2023-04-08T10:33:45.417Z,100272.91
2023-04-08T10:36:50.728Z,100250.19
2023-04-08T10:39:56.239Z,100277.31
2023-04-08T10:43:01.436Z,100290.44
2023-04-08T10:46:06.398Z,100286.09
2023-04-08T10:49:11.058Z,100292.19
2023-04-08T10:52:16.598Z,100297.44
2023-04-08T10:55:28.237Z,100284.31
2023-04-08T10:58:32.637Z,100295.66
2023-04-08T11:01:41.844Z,100207.28
2023-04-08T11:04:48.549Z,100308.72
2023-04-08T11:07:53.922Z,100301.69
2023-04-08T11:11:02.537Z,100319.16
2023-04-08T11:14:08.040Z,100303.34
2023-04-08T11:17:13.454Z,100321.69
2023-04-08T11:20:18.429Z,100330.19
2023-04-08T11:23:31.453Z,100341.56
2023-04-08T11:26:38.617Z,100339.78
2023-04-08T11:29:42.883Z,100347.41
2023-04-08T11:32:47.478Z,100326.31
2023-04-08T11:35:52.862Z,100329.03
2023-04-08T11:38:57.673Z,100352.72
2023-04-08T11:42:02.155Z,100359.53
2023-04-08T11:45:17.836Z,100353.44
2023-04-08T11:48:22.249Z,100349.88
2023-04-08T11:51:27.094Z,100360.28
2023-04-08T11:54:33.500Z,100361.97
2023-04-08T11:57:38.506Z,100350.56
2023-04-08T12:00:43.648Z,100363.06
2023-04-08T12:03:59.582Z,100372.56
2023-04-08T12:07:03.784Z,100367.28
2023-04-08T12:10:08.594Z,100373.06
2023-04-08T12:13:12.525Z,100379.91
2023-04-08T12:16:17.031Z,100363.63
2023-04-08T12:19:22.449Z,100378.44
2023-04-08T12:22:26.421Z,100329.09
2023-04-08T12:25:42.976Z,100132.66
2023-04-08T12:28:48.275Z,100351.97
2023-04-08T12:31:52.551Z,100380.06
2023-04-08T12:34:57.121Z,100366.75
2023-04-08T12:38:01.200Z,100354.41
2023-04-08T12:41:05.125Z,100375.31
2023-04-08T12:44:09.575Z,100377.06
2023-04-08T12:47:13.461Z,100357.75
2023-04-08T12:50:18.024Z,100397.94
2023-04-08T12:53:22.139Z,100347.00
2023-04-08T12:56:26.558Z,100370.66
2023-04-08T12:59:30.595Z,100401.16
2023-04-08T13:02:35.054Z,100408.13
2023-04-08T13:05:43.099Z,100355.91
2023-04-08T13:08:48.504Z,100401.41
2023-04-08T13:11:52.869Z,100406.06
2023-04-08T13:14:57.529Z,100401.22
2023-04-08T13:18:02.351Z,100390.00
2023-04-08T13:21:06.448Z,100372.75
2023-04-08T13:24:11.057Z,100385.59
2023-04-08T13:27:15.615Z,100392.41
2023-04-08T13:30:20.388Z,100334.66
2023-04-08T13:33:24.956Z,100343.72
2023-04-08T13:36:29.464Z,100383.13
2023-04-08T13:39:33.388Z,100385.28
2023-04-08T13:42:38.198Z,100366.88
2023-04-08T13:45:42.864Z,100387.16
2023-04-08T13:48:47.728Z,100414.94
2023-04-08T13:51:52.235Z,100393.94
2023-04-08T13:54:56.658Z,100404.19
2023-04-08T13:58:01.570Z,100353.53
2023-04-08T14:01:07.061Z,100433.47
2023-04-08T14:04:11.546Z,100424.06
2023-04-08T14:07:16.133Z,100431.88
2023-04-08T14:10:20.298Z,100431.97
2023-04-08T14:13:24.626Z,100426.06
2023-04-08T14:16:30.467Z,100411.91
2023-04-08T14:19:34.507Z,100443.91
2023-04-08T14:22:38.911Z,100434.44
2023-04-08T14:25:43.672Z,100441.94
2023-04-08T14:28:48.583Z,100452.94
2023-04-08T14:32:18.063Z,100450.03
2023-04-08T14:35:22.617Z,100460.78
2023-04-08T14:38:27.509Z,100453.00
2023-04-08T14:41:31.507Z,100436.53
2023-04-08T14:44:36.260Z,100447.47
2023-04-08T14:47:40.781Z,100450.03
2023-04-08T14:50:45.438Z,100433.22
2023-04-08T14:53:49.807Z,100435.34
2023-04-08T14:56:54.854Z,100439.19
2023-04-08T15:00:00.237Z,100414.41
2023-04-08T15:03:04.920Z,100453.81
2023-04-08T15:06:09.752Z,100421.84
2023-04-08T15:09:14.285Z,100456.50
2023-04-08T15:12:18.877Z,100455.47
2023-04-08T15:15:23.376Z,100441.56
2023-04-08T15:18:27.912Z,100442.44
2023-04-08T15:21:32.914Z,100445.19
2023-04-08T15:24:37.888Z,100446.88
2023-04-08T15:27:44.035Z,100450.41
2023-04-08T15:30:48.629Z,100433.44
2023-04-08T15:33:53.686Z,100446.81
2023-04-08T15:36:58.460Z,100445.06
2023-04-08T15:40:02.849Z,100445.69
2023-04-08T15:43:10.866Z,100435.97
2023-04-08T15:46:22.415Z,100431.47
2023-04-08T15:49:27.587Z,100455.00
2023-04-08T15:52:33.163Z,100453.00
2023-04-08T15:55:42.813Z,100456.16
2023-04-08T15:58:47.944Z,100451.00
2023-04-08T16:01:52.585Z,100434.28
2023-04-08T16:04:59.291Z,100459.38
2023-04-08T16:08:05.354Z,100437.31
2023-04-08T16:11:10.373Z,100444.63
2023-04-08T16:14:15.128Z,100456.19
2023-04-08T16:17:19.728Z,100452.47
2023-04-08T16:20:24.284Z,100437.75
2023-04-08T16:23:28.810Z,100439.38
2023-04-08T16:26:33.230Z,100448.00
2023-04-08T16:29:37.718Z,100439.16
2023-04-08T16:32:42.886Z,100436.34
2023-04-08T16:35:48.928Z,100460.78
2023-04-08T16:39:01.410Z,100459.00
2023-04-08T16:42:06.237Z,100458.88
2023-04-08T16:45:11.366Z,100449.19
2023-04-08T16:48:15.921Z,100457.53
2023-04-08T16:51:23.115Z,100456.41
2023-04-08T16:54:27.417Z,100462.72
2023-04-08T16:57:31.461Z,100454.63
2023-04-08T17:00:37.405Z,100445.66
2023-04-08T17:03:42.305Z,100451.56
2023-04-08T17:06:46.843Z,100451.63
2023-04-08T17:09:52.828Z,100451.53
2023-04-08T17:12:58.584Z,100450.28
2023-04-08T17:16:02.922Z,100455.56
2023-04-08T17:19:07.403Z,100444.44
2023-04-08T17:22:12.282Z,100440.16
2023-04-08T17:25:17.037Z,100439.16
2023-04-08T17:28:22.319Z,100441.09
2023-04-08T17:31:26.369Z,100432.84
2023-04-08T17:34:32.228Z,100442.91
2023-04-08T17:37:37.178Z,100439.16
2023-04-08T17:40:41.584Z,100438.38
2023-04-08T17:43:46.749Z,100443.31
2023-04-08T17:46:51.357Z,100441.50
2023-04-08T17:49:57.065Z,100445.94
2023-04-08T17:53:01.815Z,100416.25
2023-04-08T17:56:07.009Z,100413.53
2023-04-08T17:59:12.252Z,100423.69
2023-04-08T18:02:16.682Z,100446.16
2023-04-08T18:05:21.372Z,100441.41
2023-04-08T18:08:25.575Z,100439.78
2023-04-08T18:11:29.421Z,100451.81
2023-04-08T18:14:33.778Z,100443.41
2023-04-08T18:17:38.066Z,100444.56
2023-04-08T18:20:42.665Z,100456.69
2023-04-08T18:23:50.331Z,100455.41
2023-04-08T18:27:03.903Z,100482.84
2023-04-08T18:30:09.227Z,100474.56
2023-04-08T18:33:13.480Z,100470.78
2023-04-08T18:36:18.268Z,100470.38
2023-04-08T18:39:22.450Z,100463.56
2023-04-08T18:42:26.756Z,100456.97
2023-04-08T18:45:31.292Z,100454.13
2023-04-08T18:48:35.479Z,100466.38
2023-04-08T18:51:42.200Z,100463.66
2023-04-08T18:54:50.301Z,100463.78
2023-04-08T18:57:55.152Z,100442.09
2023-04-08T19:00:59.722Z,100449.03
2023-04-08T19:04:04.396Z,100456.88
2023-04-08T19:07:08.838Z,100443.41
2023-04-08T19:10:13.529Z,100447.56
2023-04-08T19:13:17.834Z,100439.38
2023-04-08T19:16:22.024Z,100419.22
2023-04-08T19:19:26.827Z,100413.31
2023-04-08T19:22:31.863Z,100392.31
2023-04-08T19:25:37.384Z,100419.63
2023-04-08T19:28:41.916Z,100430.59
2023-04-08T19:31:46.575Z,100427.00
2023-04-08T19:34:51.355Z,100396.44
2023-04-08T19:37:55.748Z,100437.84
2023-04-08T19:40:59.928Z,100436.13
2023-04-08T19:44:04.524Z,100442.03
2023-04-08T19:47:09.121Z,100418.28
2023-04-08T19:50:17.142Z,100452.91
2023-04-08T19:53:21.848Z,100428.34
2023-04-08T19:56:26.657Z,100452.78
2023-04-08T19:59:31.128Z,100451.56
2023-04-08T20:02:35.666Z,100443.44
2023-04-08T20:05:39.942Z,100451.38
2023-04-08T20:08:44.802Z,100422.31
2023-04-08T20:11:49.376Z,100446.19
2023-04-08T20:14:54.035Z,100451.66
2023-04-08T20:17:58.688Z,100448.66
2023-04-08T20:21:02.730Z,100441.41
2023-04-08T20:24:08.075Z,100444.91
2023-04-08T20:27:12.972Z,100446.34
2023-04-08T20:30:17.478Z,100448.09
2023-04-08T20:33:21.540Z,100431.03
2023-04-08T20:36:26.012Z,100459.22
2023-04-08T20:39:31.891Z,100453.13
2023-04-08T20:42:36.430Z,100458.50
2023-04-08T20:45:40.884Z,100473.50
2023-04-08T20:48:45.708Z,100477.72
2023-04-08T20:51:50.203Z,100473.56
2023-04-08T20:54:54.778Z,100462.38
2023-04-08T20:57:58.938Z,100454.94
2023-04-08T21:01:03.099Z,100481.66
2023-04-08T21:04:10.997Z,100481.34
2023-04-08T21:07:15.399Z,100490.41
2023-04-08T21:10:19.876Z,100504.06
2023-04-08T21:13:24.308Z,100495.56
2023-04-08T21:16:29.833Z,100506.31
2023-04-08T21:19:34.448Z,100491.75
2023-04-08T21:22:39.321Z,100506.44
2023-04-08T21:25:43.479Z,100495.22
2023-04-08T21:28:47.789Z,100452.00
2023-04-08T21:31:52.217Z,100500.41
2023-04-08T21:34:56.651Z,100485.63
2023-04-08T21:38:01.251Z,100497.81
2023-04-08T21:41:05.675Z,100513.59
2023-04-08T21:44:10.957Z,100514.19
2023-04-08T21:47:15.775Z,100513.06
2023-04-08T21:50:19.799Z,100487.56
2023-04-08T21:53:24.700Z,100461.63
2023-04-08T21:56:29.257Z,100505.44
2023-04-08T21:59:33.307Z,100496.53
2023-04-08T22:02:41.511Z,100501.75
2023-04-08T22:05:45.496Z,100490.53
2023-04-08T22:08:51.405Z,100483.78
2023-04-08T22:11:55.613Z,100499.38
2023-04-08T22:15:00.000Z,100501.56
2023-04-08T22:18:05.588Z,100497.19
2023-04-08T22:21:10.102Z,100507.88
2023-04-08T22:24:14.651Z,100489.44
2023-04-08T22:27:19.147Z,100514.38
2023-04-08T22:30:23.614Z,100510.94
2023-04-08T22:33:28.693Z,100511.16
2023-04-08T22:36:32.616Z,100511.78
2023-04-08T22:39:36.819Z,100512.72
2023-04-08T22:42:41.411Z,100496.97
2023-04-08T22:45:45.592Z,100496.13
2023-04-08T22:48:50.259Z,100503.19
2023-04-08T22:51:54.180Z,100485.63
2023-04-08T22:54:58.574Z,100497.03
2023-04-08T22:58:03.258Z,100499.59
2023-04-08T23:01:18.612Z,100482.84
2023-04-08T23:04:22.736Z,100498.59
2023-04-08T23:07:27.123Z,100502.16
2023-04-08T23:10:31.117Z,100501.91
2023-04-08T23:13:36.145Z,100512.34
2023-04-08T23:16:40.183Z,100505.31
2023-04-08T23:19:44.512Z,100504.34
2023-04-08T23:22:48.426Z,100506.19
2023-04-08T23:25:55.773Z,100513.19
2023-04-08T23:28:59.969Z,100521.25
2023-04-08T23:32:03.918Z,100513.41
2023-04-08T23:35:09.709Z,100511.72
2023-04-08T23:38:13.327Z,100510.78
2023-04-08T23:41:17.042Z,100506.34
2023-04-08T23:44:21.237Z,100503.88
2023-04-08T23:47:25.060Z,100512.41
2023-04-08T23:50:28.940Z,100516.91
2023-04-08T23:53:32.806Z,100522.06
2023-04-08T23:56:37.316Z,100521.28
2023-04-08T23:59:52.971Z,100468.72
